Time;durP1;ratioP1;P1;durP2;ratioP2;P2;SDS_P1;SDS_P2;PMS_P1;PMS_P2;Temp;Humidity;BMP_temperature;BMP_pressure;BME280_temperature;BME280_humidity;BME280_pressure;Samples;Min_cycle;Max_cycle;Signal;HPM_P1;HPM_P2
2020/12/21 00:01:18;;;;;;;0.93;0.93;;;;;;;5.67;100.00;101635.03;4996477;28;20484;-65
2020/12/21 00:03:45;;;;;;;0.40;0.30;;;;;;;5.66;100.00;101630.69;4996641;28;20507;-66
2020/12/21 00:06:12;;;;;;;0.43;0.40;;;;;;;5.67;100.00;101638.53;5032870;28;20971;-66
2020/12/21 00:08:38;;;;;;;1.83;1.40;;;;;;;5.67;100.00;101643.09;5035192;28;20454;-66
2020/12/21 00:11:05;;;;;;;1.70;0.70;;;;;;;5.68;100.00;101645.53;5033449;28;20892;-65
2020/12/21 00:13:31;;;;;;;10.10;0.80;;;;;;;5.68;100.00;101648.22;5035449;28;20467;-65
2020/12/21 00:15:58;;;;;;;0.40;0.30;;;;;;;5.69;100.00;101649.84;5019376;28;20479;-66
2020/12/21 00:18:24;;;;;;;2.60;1.70;;;;;;;5.65;100.00;101643.31;5029325;28;20478;-65
2020/12/21 00:20:51;;;;;;;1.53;1.43;;;;;;;5.67;100.00;101645.78;5035448;28;20436;-65
2020/12/21 00:23:17;;;;;;;0.40;0.30;;;;;;;5.63;100.00;101637.38;5022140;28;20854;-66
2020/12/21 00:25:43;;;;;;;3.33;0.87;;;;;;;5.60;100.00;101632.47;5015336;28;20440;-66
2020/12/21 00:28:10;;;;;;;0.90;0.90;;;;;;;5.64;100.00;101639.00;5025924;28;20979;-66
2020/12/21 00:30:38;;;;;;;1.00;0.90;;;;;;;5.71;100.00;101647.75;5034731;28;20924;-66
2020/12/21 00:33:04;;;;;;;0.87;0.67;;;;;;;5.67;100.00;101640.41;5017149;28;20909;-66
2020/12/21 00:35:30;;;;;;;0.87;0.60;;;;;;;5.69;100.00;101643.66;5015307;28;20476;-65
2020/12/21 00:37:56;;;;;;;2.00;0.83;;;;;;;5.73;100.00;101647.50;5031178;28;20475;-66
2020/12/21 00:40:23;;;;;;;1.10;0.70;;;;;;;5.74;100.00;101651.81;5035082;28;20960;-65
2020/12/21 00:42:50;;;;;;;0.80;0.80;;;;;;;5.74;100.00;101658.00;5019616;28;20500;-66
2020/12/21 00:45:17;;;;;;;1.40;1.30;;;;;;;5.70;100.00;101654.16;5016214;28;20859;-65
2020/12/21 00:47:44;;;;;;;2.50;2.20;;;;;;;5.69;100.00;101657.09;5014836;28;20961;-65
2020/12/21 00:50:10;;;;;;;1.10;1.00;;;;;;;5.72;100.00;101653.94;5023216;28;20494;-65
2020/12/21 00:52:37;;;;;;;3.50;0.60;;;;;;;5.73;100.00;101652.88;5034469;28;20511;-66
2020/12/21 00:55:03;;;;;;;0.40;0.30;;;;;;;5.71;100.00;101655.81;5027151;28;20863;-65
2020/12/21 00:57:32;;;;;;;7.60;0.97;;;;;;;5.71;100.00;101650.44;5014945;28;20451;-66
2020/12/21 00:59:58;;;;;;;0.70;0.50;;;;;;;5.69;100.00;101649.84;5015137;28;20441;-65
2020/12/21 01:02:25;;;;;;;1.73;0.90;;;;;;;5.67;100.00;101648.47;5014908;28;20441;-65
2020/12/21 01:04:51;;;;;;;1.17;1.07;;;;;;;5.61;100.00;101652.91;5018944;28;20498;-66
2020/12/21 01:07:17;;;;;;;2.37;1.10;;;;;;;5.62;100.00;101645.66;5034549;28;20501;-66
2020/12/21 01:09:46;;;;;;;0.50;0.40;;;;;;;5.59;100.00;101652.34;5030860;28;20476;-65
2020/12/21 01:12:13;;;;;;;0.40;0.30;;;;;;;5.64;100.00;101665.88;5014263;28;20988;-67
2020/12/21 01:14:39;;;;;;;3.43;1.13;;;;;;;5.65;100.00;101656.75;5034286;28;20463;-66
2020/12/21 01:17:05;;;;;;;0.60;0.60;;;;;;;5.57;100.00;101652.56;5034056;28;20447;-66
2020/12/21 01:19:32;;;;;;;1.07;0.97;;;;;;;5.43;100.00;101661.19;5014925;28;20444;-65
2020/12/21 01:21:58;;;;;;;0.40;0.30;;;;;;;5.51;100.00;101660.81;5023386;28;20983;-65
2020/12/21 01:24:24;;;;;;;0.57;0.50;;;;;;;5.59;100.00;101660.41;5034231;28;20914;-66
2020/12/21 01:26:50;;;;;;;3.07;0.97;;;;;;;5.64;100.00;101659.69;5026403;28;20451;-66
2020/12/21 01:29:17;;;;;;;1.53;0.83;;;;;;;5.66;100.00;101658.38;5015430;28;20562;-65
2020/12/21 01:31:43;;;;;;;0.40;0.33;;;;;;;5.73;100.00;101669.00;5013967;28;20530;-66
2020/12/21 01:34:09;;;;;;;1.90;0.90;;;;;;;5.77;100.00;101660.22;5018884;28;20467;-65
2020/12/21 01:36:36;;;;;;;0.63;0.53;;;;;;;5.79;100.00;101665.34;5033955;28;20445;-66
2020/12/21 01:39:03;;;;;;;0.77;0.77;;;;;;;5.76;100.00;101663.97;5029970;28;20469;-67
2020/12/21 01:41:29;;;;;;;0.70;0.40;;;;;;;5.79;100.00;101658.06;5013887;28;20475;-66
2020/12/21 01:43:56;;;;;;;0.50;0.50;;;;;;;5.86;100.00;101651.75;5015615;28;20824;-67
2020/12/21 01:46:22;;;;;;;3.67;0.73;;;;;;;5.91;100.00;101649.13;5033776;28;20845;-66
2020/12/21 01:48:49;;;;;;;0.63;0.63;;;;;;;5.92;100.00;101656.19;5032862;28;20467;-67
2020/12/21 01:51:22;;;;;;;1.00;0.67;;;;;;;5.90;100.00;101644.84;5013969;28;20498;-66
2020/12/21 01:53:50;;;;;;;1.07;0.60;;;;;;;5.90;100.00;101653.72;5013788;28;20465;-67
2020/12/21 01:56:17;;;;;;;1.43;1.30;;;;;;;5.88;100.00;101649.63;5031298;28;20483;-65
2020/12/21 01:58:44;;;;;;;0.40;0.30;;;;;;;5.86;100.00;101654.44;5033587;28;20532;-66
2020/12/21 02:01:12;;;;;;;3.93;2.30;;;;;;;5.88;100.00;101655.00;5014078;28;20976;-66
2020/12/21 02:03:38;;;;;;;0.77;0.60;;;;;;;5.91;100.00;101654.53;5013814;28;20476;-66
2020/12/21 02:06:05;;;;;;;1.17;1.00;;;;;;;5.96;100.00;101662.69;5031135;28;20791;-67
2020/12/21 02:08:31;;;;;;;0.97;0.97;;;;;;;5.96;100.00;101652.75;5033424;28;20474;-65
2020/12/21 02:10:58;;;;;;;0.50;0.30;;;;;;;5.96;100.00;101651.94;5016975;28;20561;-66
2020/12/21 02:13:24;;;;;;;3.90;2.20;;;;;;;5.95;100.00;101655.69;5013759;28;20504;-66
2020/12/21 02:15:51;;;;;;;1.13;1.03;;;;;;;5.95;100.00;101661.06;5028035;28;20994;-67
2020/12/21 02:18:17;;;;;;;1.53;1.00;;;;;;;5.97;100.00;101664.31;5032938;28;20960;-66
2020/12/21 02:20:44;;;;;;;0.70;0.60;;;;;;;5.99;100.00;101673.78;5019914;28;20459;-67
2020/12/21 02:23:10;;;;;;;0.60;0.60;;;;;;;5.98;100.00;101674.84;5022034;28;20483;-66
2020/12/21 02:25:36;;;;;;;2.30;2.20;;;;;;;6.01;100.00;101678.91;5033549;28;20826;-66
2020/12/21 02:28:03;;;;;;;1.47;0.80;;;;;;;5.96;100.00;101673.44;5025245;28;20456;-66
2020/12/21 02:30:29;;;;;;;0.73;0.73;;;;;;;6.00;100.00;101686.16;5017595;28;20522;-66
2020/12/21 02:32:55;;;;;;;1.07;0.80;;;;;;;5.98;100.00;101682.09;5037403;28;20830;-66
2020/12/21 02:35:21;;;;;;;9.63;2.90;;;;;;;6.00;100.00;101685.34;5034373;28;20435;-66
2020/12/21 02:37:48;;;;;;;1.90;1.03;;;;;;;6.02;100.00;101683.22;5017501;28;20451;-66
2020/12/21 02:40:14;;;;;;;0.50;0.50;;;;;;;5.99;100.00;101687.22;5018698;28;20531;-66
2020/12/21 02:42:40;;;;;;;0.50;0.40;;;;;;;5.99;100.00;101689.91;5036947;28;20884;-66
2020/12/21 02:45:07;;;;;;;1.30;1.20;;;;;;;6.01;100.00;101692.34;5029583;28;20874;-66
2020/12/21 02:47:33;;;;;;;2.70;1.33;;;;;;;6.03;100.00;101692.94;5017182;28;20455;-66
2020/12/21 02:49:59;;;;;;;0.63;0.63;;;;;;;6.07;100.00;101697.59;5022568;28;21072;-66
2020/12/21 02:52:25;;;;;;;1.13;0.63;;;;;;;6.09;100.00;101689.28;5038044;28;20526;-65
2020/12/21 02:54:52;;;;;;;1.63;1.23;;;;;;;6.13;100.00;101687.72;5035341;28;20498;-66
2020/12/21 02:57:18;;;;;;;2.50;2.30;;;;;;;6.16;100.00;101689.94;5037209;28;20470;-67
2020/12/21 02:59:44;;;;;;;0.60;0.50;;;;;;;6.19;100.00;101689.44;5031562;28;20473;-67
2020/12/21 03:02:11;;;;;;;4.53;2.77;;;;;;;6.20;100.00;101691.09;5017639;28;20477;-66
2020/12/21 03:04:37;;;;;;;2.90;1.83;;;;;;;6.22;100.00;101680.88;5022222;28;20471;-65
2020/12/21 03:07:03;;;;;;;1.70;0.63;;;;;;;6.26;100.00;101684.72;5036739;28;21010;-66
2020/12/21 03:09:29;;;;;;;2.20;0.83;;;;;;;6.30;100.00;101695.81;5033537;28;20492;-66
2020/12/21 03:11:56;;;;;;;2.10;1.60;;;;;;;6.32;100.00;101694.50;5017137;28;20479;-66
2020/12/21 03:14:22;;;;;;;5.33;2.83;;;;;;;6.35;100.00;101693.19;5022880;28;20509;-67
2020/12/21 03:16:49;;;;;;;1.80;1.70;;;;;;;6.34;100.00;101688.06;5036934;28;20453;-66
2020/12/21 03:19:15;;;;;;;2.83;2.53;;;;;;;6.38;100.00;101692.72;5032732;28;20444;-66
2020/12/21 03:21:41;;;;;;;0.80;0.80;;;;;;;6.37;100.00;101691.06;5017415;28;20492;-65
2020/12/21 03:24:07;;;;;;;2.37;2.00;;;;;;;6.37;100.00;101685.69;5019652;28;21047;-66
2020/12/21 03:26:33;;;;;;;2.37;1.63;;;;;;;6.41;100.00;101683.31;5037740;28;20447;-65
2020/12/21 03:29:00;;;;;;;2.63;1.43;;;;;;;6.45;100.00;101687.16;5034791;28;20474;-66
2020/12/21 03:31:26;;;;;;;5.60;1.17;;;;;;;6.43;100.00;101681.22;5016597;28;20954;-65
2020/12/21 03:33:53;;;;;;;1.90;0.90;;;;;;;6.40;100.00;101687.88;5016374;28;20464;-67
2020/12/21 03:36:19;;;;;;;1.20;1.10;;;;;;;6.37;100.00;101680.28;5035934;28;20485;-66
2020/12/21 03:38:45;;;;;;;2.73;0.73;;;;;;;6.39;100.00;101672.00;5035856;28;20832;-65
2020/12/21 03:41:11;;;;;;;1.10;1.07;;;;;;;6.36;100.00;101670.59;5017689;28;20547;-65
2020/12/21 03:43:37;;;;;;;3.00;2.07;;;;;;;6.36;100.00;101672.47;5016846;28;20536;-65
2020/12/21 03:46:04;;;;;;;1.07;0.90;;;;;;;6.40;100.00;101673.63;5035806;28;20471;-66
2020/12/21 03:48:30;;;;;;;0.80;0.67;;;;;;;6.41;100.00;101664.47;5035242;28;20940;-67
2020/12/21 03:50:57;;;;;;;3.23;1.50;;;;;;;6.42;100.00;101666.09;5016093;28;20511;-67
2020/12/21 03:53:23;;;;;;;0.40;0.30;;;;;;;6.44;100.00;101664.81;5016290;28;20464;-66
2020/12/21 03:55:49;;;;;;;2.97;1.07;;;;;;;6.43;100.00;101665.06;5034873;28;20454;-66
2020/12/21 03:58:15;;;;;;;1.43;1.33;;;;;;;6.42;100.00;101663.41;5024494;28;20459;-66
2020/12/21 04:00:42;;;;;;;7.40;0.97;;;;;;;6.40;100.00;101677.13;5021947;28;20538;-67
2020/12/21 04:03:09;;;;;;;0.73;0.50;;;;;;;6.43;100.00;101678.53;5035683;28;20524;-66
2020/12/21 04:05:35;;;;;;;1.13;0.80;;;;;;;6.42;100.00;101679.56;5031031;28;20487;-66
2020/12/21 04:08:01;;;;;;;1.53;1.43;;;;;;;6.39;100.00;101674.69;5015872;28;20466;-66
2020/12/21 04:10:27;;;;;;;4.53;2.70;;;;;;;6.41;100.00;101672.56;5016855;28;20482;-67
2020/12/21 04:12:54;;;;;;;1.10;0.60;;;;;;;6.44;100.00;101674.75;5015744;28;20472;-67
2020/12/21 04:15:20;;;;;;;1.37;1.27;;;;;;;6.45;100.00;101679.88;5016812;28;20451;-67
2020/12/21 04:17:46;;;;;;;1.27;1.13;;;;;;;6.47;100.00;101669.72;5035170;28;21014;-67
2020/12/21 04:20:13;;;;;;;0.60;0.60;;;;;;;6.45;100.00;101671.00;5034852;28;20933;-67
2020/12/21 04:22:39;;;;;;;7.90;1.57;;;;;;;6.46;100.00;101678.00;4995660;28;20965;-67
2020/12/21 04:25:05;;;;;;;1.30;0.63;;;;;;;6.44;100.00;101680.16;5006520;28;20892;-66
2020/12/21 04:27:31;;;;;;;2.50;2.30;;;;;;;6.40;100.00;101673.63;5035284;28;20482;-67
2020/12/21 04:29:57;;;;;;;0.40;0.30;;;;;;;6.38;100.00;101675.75;5031131;28;20512;-67
2020/12/21 04:32:24;;;;;;;1.17;1.07;;;;;;;6.33;100.00;101673.81;5015537;28;20488;-66
2020/12/21 04:34:50;;;;;;;1.30;0.60;;;;;;;6.32;100.00;101682.91;5018367;28;20496;-66
2020/12/21 04:37:17;;;;;;;3.47;1.57;;;;;;;6.25;100.00;101677.72;5015344;28;20448;-67
2020/12/21 04:39:43;;;;;;;2.40;0.60;;;;;;;6.26;100.00;101676.66;5030404;28;20447;-66
2020/12/21 04:42:09;;;;;;;0.67;0.67;;;;;;;6.26;100.00;101670.44;5034999;28;20475;-66
2020/12/21 04:44:36;;;;;;;2.27;2.07;;;;;;;6.30;100.00;101675.09;5020034;28;21017;-65
2020/12/21 04:47:02;;;;;;;5.37;2.20;;;;;;;6.32;100.00;101666.78;5015396;28;20467;-66
2020/12/21 04:49:28;;;;;;;6.00;2.13;;;;;;;6.30;100.00;101667.03;5027300;28;20479;-66
2020/12/21 04:51:54;;;;;;;1.93;1.80;;;;;;;6.32;100.00;101662.19;5034475;28;21014;-66
2020/12/21 04:54:21;;;;;;;0.67;0.67;;;;;;;6.25;100.00;101658.88;5023091;28;20534;-66
2020/12/21 04:56:47;;;;;;;0.70;0.70;;;;;;;6.27;100.00;101661.31;5014913;28;20483;-67
2020/12/21 04:59:14;;;;;;;0.50;0.40;;;;;;;6.22;100.00;101670.13;5024283;28;20478;-66
2020/12/21 05:01:41;;;;;;;2.50;0.90;;;;;;;6.18;100.00;101663.59;5034565;28;20526;-67
2020/12/21 05:04:07;;;;;;;4.73;0.50;;;;;;;6.15;100.00;101669.47;5025244;28;20507;-66
2020/12/21 05:06:34;;;;;;;2.50;2.30;;;;;;;6.13;100.00;101671.59;5018653;28;20439;-66
2020/12/21 05:09:01;;;;;;;1.03;0.73;;;;;;;6.09;100.00;101665.06;5034313;28;20924;-66
2020/12/21 05:11:28;;;;;;;2.30;2.10;;;;;;;6.09;100.00;101666.94;5031774;28;20487;-67
2020/12/21 05:14:08;;;;;;;0.87;0.87;;;;;;;6.04;100.00;101659.59;5021228;28;20501;-66
2020/12/21 05:16:34;;;;;;;1.23;0.97;;;;;;;5.98;100.00;101666.78;5030791;28;20498;-67
2020/12/21 05:19:00;;;;;;;1.23;1.13;;;;;;;5.92;100.00;101661.56;5014612;28;20475;-67
2020/12/21 05:21:28;;;;;;;0.63;0.63;;;;;;;5.88;100.00;101663.06;5015629;28;20471;-66
2020/12/21 05:23:58;;;;;;;2.00;1.33;;;;;;;5.85;100.00;101666.25;5051830;22;20583;-72
2020/12/21 05:26:29;;;;;;;0.50;0.30;;;;;;;5.85;100.00;101671.63;5013601;28;20436;-72
2020/12/21 05:28:56;;;;;;;2.30;1.17;;;;;;;5.80;100.00;101667.78;5013958;28;20494;-73
2020/12/21 05:31:23;;;;;;;0.60;0.57;;;;;;;5.87;100.00;101669.50;5014368;28;20488;-69
2020/12/21 05:33:49;;;;;;;0.73;0.40;;;;;;;5.85;100.00;101666.25;5030729;28;20460;-71
2020/12/21 05:36:18;;;;;;;3.03;1.33;;;;;;;5.84;100.00;101670.78;5013753;28;20938;-72
2020/12/21 05:38:56;;;;;;;0.90;0.90;;;;;;;5.79;100.00;101666.13;5014247;28;20541;-72
2020/12/21 05:41:22;;;;;;;0.60;0.50;;;;;;;5.80;100.00;101670.47;5014187;28;20772;-72
2020/12/21 05:43:52;;;;;;;3.13;1.40;;;;;;;5.80;100.00;101666.97;5015951;28;20464;-72
2020/12/21 05:46:19;;;;;;;1.40;1.30;;;;;;;5.85;100.00;101677.00;5033423;28;20450;-72
2020/12/21 05:48:46;;;;;;;2.40;1.10;;;;;;;5.75;100.00;101665.00;5015091;28;21015;-72
2020/12/21 05:51:21;;;;;;;1.13;0.80;;;;;;;5.79;100.00;101663.44;5014121;28;20483;-72
2020/12/21 05:53:47;;;;;;;1.87;1.77;;;;;;;5.80;100.00;101665.09;5029331;28;20502;-72
2020/12/21 05:56:14;;;;;;;1.07;1.00;;;;;;;5.81;100.00;101671.28;5013564;28;20933;-72
2020/12/21 05:58:41;;;;;;;2.30;2.00;;;;;;;5.76;100.00;101672.03;5021844;28;20447;-72
2020/12/21 06:01:10;;;;;;;1.40;1.30;;;;;;;5.77;100.00;101673.66;5012518;28;20507;-72
2020/12/21 06:03:44;;;;;;;2.83;2.43;;;;;;;5.79;100.00;101674.22;5013967;28;20464;-72
2020/12/21 06:06:13;;;;;;;1.90;1.80;;;;;;;5.75;100.00;101670.38;4993736;28;20800;-72
2020/12/21 06:08:40;;;;;;;1.73;1.63;;;;;;;5.73;100.00;101674.38;4993762;28;21038;-72
2020/12/21 06:11:12;;;;;;;1.80;0.87;;;;;;;5.68;100.00;101676.97;4993903;28;20892;-72
2020/12/21 06:13:42;;;;;;;0.80;0.50;;;;;;;5.68;100.00;101682.34;4993943;28;20457;-72
2020/12/21 06:16:10;;;;;;;1.33;0.57;;;;;;;5.66;100.00;101677.19;4993688;28;20935;-72
2020/12/21 06:18:36;;;;;;;2.50;2.10;;;;;;;5.59;100.00;101681.09;4993927;28;20452;-73
2020/12/21 06:21:03;;;;;;;1.27;0.93;;;;;;;5.57;100.00;101681.31;4993751;28;20456;-73
2020/12/21 06:23:30;;;;;;;1.53;1.43;;;;;;;5.51;100.00;101685.00;4993720;28;20483;-73
2020/12/21 06:26:08;;;;;;;3.23;1.00;;;;;;;5.46;100.00;101687.59;4993952;28;20438;-73
2020/12/21 06:28:34;;;;;;;1.33;1.23;;;;;;;5.38;100.00;101690.66;4993929;28;20532;-73
2020/12/21 06:31:14;;;;;;;0.40;0.40;;;;;;;5.36;100.00;101685.53;4993759;28;20493;-72
2020/12/21 06:33:41;;;;;;;4.20;2.17;;;;;;;5.32;100.00;101684.38;4993801;28;20496;-73
2020/12/21 06:36:07;;;;;;;0.60;0.60;;;;;;;5.31;100.00;101699.66;4993369;28;20993;-73
2020/12/21 06:38:43;;;;;;;9.70;1.30;;;;;;;5.29;100.00;101700.94;4993870;28;20453;-73
2020/12/21 06:41:23;;;;;;;0.97;0.80;;;;;;;5.24;100.00;101693.59;4993782;28;20453;-73
2020/12/21 06:43:57;;;;;;;5.70;1.70;;;;;;;5.21;100.00;101688.69;4993764;28;20531;-72
2020/12/21 06:46:24;;;;;;;0.97;0.90;;;;;;;5.16;100.00;101688.59;4993814;28;20800;-72
2020/12/21 06:49:13;;;;;;;2.40;1.70;;;;;;;5.12;100.00;101695.50;4993700;28;20472;-71
2020/12/21 06:51:42;;;;;;;0.73;0.50;;;;;;;5.12;100.00;101690.13;4993696;28;20572;-71
2020/12/21 06:54:09;;;;;;;0.40;0.40;;;;;;;5.16;100.00;101685.91;4993580;28;20496;-71
2020/12/21 06:56:36;;;;;;;3.40;1.23;;;;;;;5.14;100.00;101685.34;4993389;28;20484;-70
2020/12/21 06:59:03;;;;;;;1.10;1.00;;;;;;;5.15;100.00;101684.28;4993305;28;20939;-71
2020/12/21 07:01:30;;;;;;;1.47;0.70;;;;;;;5.15;100.00;101692.34;4993615;28;20443;-70
2020/12/21 07:03:56;;;;;;;1.80;1.37;;;;;;;5.16;100.00;101691.28;4993179;28;20464;-71
2020/12/21 07:06:22;;;;;;;8.57;2.53;;;;;;;5.15;100.00;101707.66;4993594;28;20441;-71
2020/12/21 07:08:49;;;;;;;9.83;1.57;;;;;;;5.13;100.00;101699.81;4993557;28;20476;-71
2020/12/21 07:11:19;;;;;;;0.97;0.63;;;;;;;5.12;100.00;101705.41;4993073;28;20998;-71
2020/12/21 07:13:46;;;;;;;2.40;0.83;;;;;;;5.05;100.00;101719.00;4993331;28;20503;-71
2020/12/21 07:16:14;;;;;;;0.50;0.40;;;;;;;5.01;100.00;101720.50;4993442;28;20441;-71
2020/12/21 07:18:41;;;;;;;9.60;1.90;;;;;;;5.01;100.00;101721.31;4995727;28;20476;-71
2020/12/21 07:21:08;;;;;;;0.80;0.70;;;;;;;5.02;100.00;101722.13;4997133;28;20464;-71
2020/12/21 07:23:35;;;;;;;1.10;1.10;;;;;;;5.02;100.00;101730.19;4996727;28;20547;-71
2020/12/21 07:26:01;;;;;;;1.00;0.50;;;;;;;5.04;100.00;101734.25;4997029;28;20425;-71
2020/12/21 07:28:28;;;;;;;3.93;1.20;;;;;;;5.07;100.00;101735.66;4996659;28;20445;-72
2020/12/21 07:31:04;;;;;;;1.17;1.17;;;;;;;5.06;100.00;101728.66;4996805;28;20496;-72
2020/12/21 07:33:30;;;;;;;1.00;0.43;;;;;;;5.04;100.00;101731.56;4996546;28;20918;-72
2020/12/21 07:35:58;;;;;;;1.03;1.03;;;;;;;5.11;100.00;101725.28;4996815;28;20441;-72
2020/12/21 07:38:25;;;;;;;0.40;0.30;;;;;;;5.11;100.00;101725.28;4996528;28;20540;-72
2020/12/21 07:40:53;;;;;;;0.40;0.40;;;;;;;5.04;100.00;101728.88;4996511;28;20456;-71
2020/12/21 07:43:34;;;;;;;0.50;0.50;;;;;;;5.08;100.00;101731.94;4996567;28;20445;-72
2020/12/21 07:46:04;;;;;;;0.80;0.60;;;;;;;5.11;100.00;101742.22;4996356;28;20915;-72
2020/12/21 07:48:33;;;;;;;0.70;0.50;;;;;;;5.15;100.00;101737.19;4996713;28;20429;-72
2020/12/21 07:51:03;;;;;;;2.33;1.50;;;;;;;5.18;100.00;101734.84;4996460;28;20859;-72
2020/12/21 07:53:38;;;;;;;5.03;1.80;;;;;;;5.22;100.00;101727.09;4996223;28;20464;-72
2020/12/21 07:56:05;;;;;;;0.60;0.60;;;;;;;5.28;100.00;101724.31;4996201;28;20429;-72
2020/12/21 07:58:35;;;;;;;1.03;0.67;;;;;;;5.31;100.00;101736.44;4996425;28;20468;-72
2020/12/21 08:01:01;;;;;;;10.23;1.33;;;;;;;5.36;100.00;101738.41;4996685;28;20433;-71
2020/12/21 08:03:30;;;;;;;2.20;1.03;;;;;;;5.42;100.00;101740.16;4995924;28;20863;-71
2020/12/21 08:06:08;;;;;;;1.33;1.20;;;;;;;5.49;100.00;101744.34;4996263;28;20477;-71
2020/12/21 08:08:35;;;;;;;0.80;0.60;;;;;;;5.52;100.00;101735.78;4995806;28;20944;-71
2020/12/21 08:11:02;;;;;;;2.30;0.80;;;;;;;5.52;100.00;101732.28;4995778;28;20899;-69
2020/12/21 08:13:28;;;;;;;0.40;0.40;;;;;;;5.56;100.00;101733.44;4995776;28;20477;-72
2020/12/21 08:16:04;;;;;;;0.50;0.43;;;;;;;5.58;100.00;101739.41;4995858;28;20449;-72
2020/12/21 08:18:31;;;;;;;0.40;0.27;;;;;;;5.55;100.00;101743.38;4996346;28;20433;-71
2020/12/21 08:20:57;;;;;;;1.83;0.60;;;;;;;5.54;100.00;101746.31;4995945;28;20486;-72
2020/12/21 08:23:25;;;;;;;2.70;0.57;;;;;;;5.47;100.00;101743.75;4995651;28;20515;-71
2020/12/21 08:25:52;;;;;;;2.90;2.30;;;;;;;5.46;100.00;101749.38;4995584;28;20927;-71
2020/12/21 08:28:28;;;;;;;4.10;2.00;;;;;;;5.42;100.00;101740.97;4995354;28;20452;-71
2020/12/21 08:31:19;;;;;;;2.83;1.43;;;;;;;5.37;100.00;101748.94;4995669;28;20469;-71
2020/12/21 08:34:01;;;;;;;2.83;1.43;;;;;;;5.36;100.00;101751.84;4980958;28;20988;-71
2020/12/21 08:36:30;;;;;;;2.70;1.23;;;;;;;5.28;100.00;101750.34;4995205;28;20535;-70
2020/12/21 08:39:10;;;;;;;0.40;0.30;;;;;;;5.26;100.00;101755.13;4995204;28;20997;-71
2020/12/21 08:41:38;;;;;;;1.73;1.17;;;;;;;5.26;100.00;101757.81;4995625;28;20425;-71
2020/12/21 08:44:12;;;;;;;0.80;0.80;;;;;;;5.27;100.00;101762.97;4995213;28;20996;-71
2020/12/21 08:46:41;;;;;;;0.40;0.30;;;;;;;5.24;100.00;101768.81;4995581;28;20425;-71
2020/12/21 08:49:07;;;;;;;0.70;0.70;;;;;;;5.28;100.00;101769.16;4995430;28;20441;-71
2020/12/21 08:51:33;;;;;;;2.33;1.53;;;;;;;5.35;100.00;101761.78;4994963;28;20485;-70
2020/12/21 08:54:00;;;;;;;2.17;1.30;;;;;;;5.35;100.00;101764.47;4995288;28;20465;-71
2020/12/21 08:56:27;;;;;;;0.43;0.40;;;;;;;5.39;100.00;101764.81;4995287;28;20448;-70
2020/12/21 08:58:53;;;;;;;1.70;0.90;;;;;;;5.37;100.00;101769.63;4995650;28;20452;-71
2020/12/21 09:01:20;;;;;;;2.03;1.93;;;;;;;5.42;100.00;101767.84;4995272;28;20473;-71
2020/12/21 09:03:47;;;;;;;0.40;0.30;;;;;;;5.44;100.00;101772.97;4994787;28;20473;-71
2020/12/21 09:06:20;;;;;;;0.90;0.80;;;;;;;5.43;100.00;101763.28;4995090;28;20449;-71
2020/12/21 09:08:46;;;;;;;1.33;1.20;;;;;;;5.46;100.00;101766.31;4994842;28;20451;-71
2020/12/21 09:11:16;;;;;;;0.83;0.60;;;;;;;5.48;100.00;101760.69;4995011;28;20531;-71
2020/12/21 09:13:43;;;;;;;2.53;0.57;;;;;;;5.50;100.00;101759.41;4994687;28;20974;-71
2020/12/21 09:16:09;;;;;;;0.40;0.30;;;;;;;5.53;100.00;101768.84;4994613;28;20804;-71
2020/12/21 09:18:36;;;;;;;1.70;1.10;;;;;;;5.58;100.00;101766.28;4998918;28;20535;-70
2020/12/21 09:21:03;;;;;;;1.17;0.73;;;;;;;5.63;100.00;101771.75;5032060;28;20454;-71
2020/12/21 09:23:29;;;;;;;7.67;3.00;;;;;;;5.65;100.00;101774.19;5025995;28;20440;-71
2020/12/21 09:25:55;;;;;;;0.50;0.43;;;;;;;5.67;100.00;101772.91;5014079;28;20960;-71
2020/12/21 09:28:22;;;;;;;2.10;1.90;;;;;;;5.70;100.00;101777.00;5014352;28;20815;-70
2020/12/21 09:30:49;;;;;;;0.83;0.83;;;;;;;5.71;100.00;101774.06;5021224;28;20514;-71
2020/12/21 09:33:15;;;;;;;0.70;0.70;;;;;;;5.76;100.00;101765.31;5014076;28;20455;-71
2020/12/21 09:35:41;;;;;;;0.60;0.40;;;;;;;5.80;100.00;101774.53;5014073;28;20444;-71
2020/12/21 09:38:07;;;;;;;1.20;0.50;;;;;;;5.83;100.00;101772.16;5013912;28;20433;-71
2020/12/21 09:40:34;;;;;;;1.90;1.17;;;;;;;5.83;100.00;101771.34;5013091;28;20826;-71
2020/12/21 09:43:00;;;;;;;0.40;0.30;;;;;;;5.87;100.00;101768.97;5014597;28;20961;-71
2020/12/21 09:45:26;;;;;;;0.67;0.63;;;;;;;5.91;100.00;101757.50;5013615;28;20985;-71
2020/12/21 09:47:53;;;;;;;0.70;0.70;;;;;;;5.90;100.00;101760.44;5013906;28;20455;-71
2020/12/21 09:50:20;;;;;;;0.70;0.50;;;;;;;5.91;100.00;101756.69;5013176;28;21078;-70
2020/12/21 09:52:46;;;;;;;2.10;0.70;;;;;;;5.82;100.00;101759.75;5013776;28;20534;-70
2020/12/21 09:55:14;;;;;;;0.40;0.40;;;;;;;5.89;100.00;101753.41;5013652;28;20479;-70
2020/12/21 09:57:40;;;;;;;7.90;1.13;;;;;;;5.93;100.00;101749.22;5013602;28;20531;-70
2020/12/21 10:00:06;;;;;;;0.40;0.37;;;;;;;5.97;100.00;101739.63;5013564;28;20441;-70
2020/12/21 10:02:32;;;;;;;1.60;0.53;;;;;;;6.04;100.00;101740.28;5013687;28;20448;-70
2020/12/21 10:04:59;;;;;;;0.60;0.60;;;;;;;6.08;100.00;101741.44;5013599;28;20543;-70
2020/12/21 10:07:25;;;;;;;1.53;0.60;;;;;;;6.06;100.00;101738.16;5013752;28;20965;-71
2020/12/21 10:09:52;;;;;;;1.37;0.90;;;;;;;6.09;100.00;101736.88;5013807;28;20494;-72
2020/12/21 10:12:18;;;;;;;1.20;0.83;;;;;;;6.11;100.00;101735.59;5013748;28;20444;-70
2020/12/21 10:14:45;;;;;;;1.87;0.90;;;;;;;6.16;100.00;101726.78;5013302;28;20463;-70
2020/12/21 10:17:11;;;;;;;1.00;0.77;;;;;;;6.18;100.00;101725.47;5013645;28;20815;-70
2020/12/21 10:19:37;;;;;;;1.30;0.97;;;;;;;6.21;100.00;101737.63;5013858;28;20439;-70
2020/12/21 10:22:04;;;;;;;2.90;1.47;;;;;;;6.30;100.00;101731.59;5013828;28;20472;-70
2020/12/21 10:24:31;;;;;;;1.33;1.23;;;;;;;6.31;100.00;101724.34;5013343;28;20479;-70
2020/12/21 10:26:57;;;;;;;4.43;1.70;;;;;;;6.39;100.00;101720.44;5013529;28;20448;-70
2020/12/21 10:29:23;;;;;;;0.93;0.90;;;;;;;6.42;100.00;101717.22;5013558;28;20448;-70
2020/12/21 10:31:49;;;;;;;0.50;0.50;;;;;;;6.48;100.00;101724.34;5013380;28;20532;-70
2020/12/21 10:34:15;;;;;;;2.10;0.67;;;;;;;6.54;100.00;101716.09;5013387;28;20471;-69
2020/12/21 10:36:41;;;;;;;0.70;0.60;;;;;;;6.57;100.00;101718.31;5013532;28;20443;-70
2020/12/21 10:39:08;;;;;;;0.50;0.40;;;;;;;6.64;100.00;101718.16;5013410;28;20447;-70
2020/12/21 10:41:35;;;;;;;10.20;1.07;;;;;;;6.70;100.00;101714.44;5013363;28;20436;-70
2020/12/21 10:44:01;;;;;;;0.70;0.70;;;;;;;6.75;100.00;101709.13;5013186;28;20491;-70
2020/12/21 10:46:28;;;;;;;3.70;1.17;;;;;;;6.83;99.92;101702.53;5013096;28;20507;-70
2020/12/21 10:48:54;;;;;;;4.00;1.63;;;;;;;6.88;99.86;101696.38;5013383;28;20479;-70
2020/12/21 10:51:27;;;;;;;6.27;1.60;;;;;;;6.94;99.79;101696.19;5013470;28;20487;-70
2020/12/21 10:53:54;;;;;;;1.27;1.20;;;;;;;7.02;99.68;101697.66;5017074;28;20464;-70
2020/12/21 10:56:21;;;;;;;1.17;0.97;;;;;;;7.03;99.38;101693.88;5017182;28;20471;-70
2020/12/21 10:58:48;;;;;;;1.10;0.93;;;;;;;7.04;99.09;101692.84;5017115;28;20444;-70
2020/12/21 11:01:15;;;;;;;0.80;0.80;;;;;;;7.00;98.61;101689.81;5016700;28;20443;-70
2020/12/21 11:03:41;;;;;;;2.40;1.27;;;;;;;7.08;98.63;101685.88;5016677;28;20985;-70
2020/12/21 11:06:07;;;;;;;1.60;1.23;;;;;;;7.14;98.63;101682.19;5016689;28;20444;-70
2020/12/21 11:08:34;;;;;;;1.07;0.53;;;;;;;7.15;97.31;101675.72;5017371;28;20486;-69
2020/12/21 11:11:00;;;;;;;0.70;0.50;;;;;;;7.20;97.08;101681.19;5036448;28;20536;-70
2020/12/21 11:13:27;;;;;;;0.80;0.80;;;;;;;7.29;97.33;101678.84;5036715;28;20451;-69
2020/12/21 11:15:53;;;;;;;3.03;0.83;;;;;;;7.34;98.06;101678.91;5036418;28;20546;-71
2020/12/21 11:18:19;;;;;;;1.40;0.80;;;;;;;7.44;98.04;101683.63;5035612;28;20792;-71
2020/12/21 11:20:46;;;;;;;3.50;1.37;;;;;;;7.46;97.85;101689.56;5036127;28;20438;-71
2020/12/21 11:23:12;;;;;;;3.63;1.97;;;;;;;7.57;96.90;101675.94;5035756;28;20439;-72
2020/12/21 11:25:39;;;;;;;3.90;0.50;;;;;;;7.68;96.09;101676.03;5036076;28;20470;-72
2020/12/21 11:28:05;;;;;;;0.50;0.40;;;;;;;7.79;95.75;101675.91;5035400;28;20446;-71